createdAt,value
2023-03-05T00:00:49.210Z,100.00
2023-03-05T00:03:21.863Z,100.00
2023-03-05T00:05:59.817Z,100.00
2023-03-05T00:08:33.625Z,100.00
2023-03-05T00:11:10.839Z,100.00
2023-03-05T00:13:44.458Z,100.00
2023-03-05T00:16:18.234Z,100.00
2023-03-05T00:18:50.788Z,100.00
2023-03-05T00:21:33.801Z,100.00
2023-03-05T00:24:15.052Z,100.00
2023-03-05T00:26:49.966Z,100.00
2023-03-05T00:29:22.725Z,100.00
2023-03-05T00:31:56.151Z,100.00
2023-03-05T00:34:29.955Z,100.00
2023-03-05T00:37:02.257Z,100.00
2023-03-05T00:39:35.127Z,100.00
2023-03-05T00:42:09.015Z,100.00
2023-03-05T00:44:43.266Z,100.00
2023-03-05T00:47:17.892Z,100.00
2023-03-05T00:49:51.608Z,100.00
2023-03-05T00:52:24.418Z,100.00
2023-03-05T00:54:58.351Z,100.00
2023-03-05T00:57:31.109Z,100.00
2023-03-05T01:00:04.541Z,100.00
2023-03-05T01:02:37.714Z,100.00
2023-03-05T01:05:14.738Z,100.00
2023-03-05T01:07:47.784Z,100.00
2023-03-05T01:10:20.992Z,100.00
2023-03-05T01:12:55.939Z,100.00
2023-03-05T01:15:29.943Z,100.00
2023-03-05T01:18:02.823Z,100.00
2023-03-05T01:20:36.124Z,100.00
2023-03-05T01:23:09.781Z,100.00
2023-03-05T01:25:43.362Z,100.00
2023-03-05T01:28:16.637Z,100.00
2023-03-05T01:30:51.591Z,100.00
2023-03-05T01:33:24.972Z,100.00
2023-03-05T01:35:57.672Z,100.00
2023-03-05T01:38:31.026Z,100.00
2023-03-05T01:41:04.104Z,100.00
2023-03-05T01:43:36.970Z,100.00
2023-03-05T01:46:30.555Z,100.00
2023-03-05T01:49:13.850Z,100.00
2023-03-05T01:52:04.346Z,100.00
2023-03-05T01:55:00.385Z,100.00
2023-03-05T01:57:40.034Z,100.00
2023-03-05T02:00:17.634Z,100.00
2023-03-05T02:02:52.391Z,100.00
2023-03-05T02:05:35.441Z,100.00
2023-03-05T02:08:12.455Z,100.00
2023-03-05T02:10:49.581Z,100.00
2023-03-05T02:13:31.779Z,100.00
2023-03-05T02:16:05.132Z,100.00
2023-03-05T02:18:38.497Z,100.00
2023-03-05T02:21:14.979Z,100.00
2023-03-05T02:23:47.767Z,100.00
2023-03-05T02:26:20.690Z,100.00
2023-03-05T02:28:57.139Z,100.00
2023-03-05T02:31:31.452Z,100.00
2023-03-05T02:34:06.654Z,100.00
2023-03-05T02:36:41.435Z,100.00
2023-03-05T02:39:14.919Z,100.00
2023-03-05T02:41:47.856Z,100.00
2023-03-05T02:44:20.783Z,100.00
2023-03-05T02:46:54.280Z,100.00
2023-03-05T02:49:27.171Z,100.00
2023-03-05T02:52:00.139Z,100.00
2023-03-05T02:54:33.328Z,100.00
2023-03-05T02:57:07.764Z,100.00
2023-03-05T02:59:41.079Z,100.00
2023-03-05T03:02:14.025Z,100.00
2023-03-05T03:04:48.535Z,100.00
2023-03-05T03:07:21.560Z,100.00
2023-03-05T03:09:54.792Z,100.00
2023-03-05T03:12:28.745Z,100.00
2023-03-05T03:15:03.191Z,100.00
2023-03-05T03:17:38.883Z,100.00
2023-03-05T03:20:15.431Z,100.00
2023-03-05T03:22:49.057Z,100.00
2023-03-05T03:25:23.866Z,100.00
2023-03-05T03:27:58.238Z,100.00
2023-03-05T03:30:30.888Z,100.00
2023-03-05T03:33:03.776Z,100.00
2023-03-05T03:35:38.509Z,100.00
2023-03-05T03:38:12.299Z,100.00
2023-03-05T03:40:44.939Z,100.00
2023-03-05T03:43:17.903Z,100.00
2023-03-05T03:45:51.308Z,100.00
2023-03-05T03:48:24.484Z,100.00
2023-03-05T03:50:57.353Z,100.00
2023-03-05T03:53:30.443Z,100.00
2023-03-05T03:56:03.795Z,100.00
2023-03-05T03:58:36.621Z,100.00
2023-03-05T04:01:09.331Z,100.00
2023-03-05T04:03:42.076Z,100.00
2023-03-05T04:06:15.784Z,100.00
2023-03-05T04:08:49.037Z,100.00
2023-03-05T04:11:23.598Z,100.00
2023-03-05T04:13:56.349Z,100.00
2023-03-05T04:16:29.788Z,100.00
2023-03-05T04:19:03.290Z,100.00
2023-03-05T04:21:36.022Z,100.00
2023-03-05T04:24:10.409Z,100.00
2023-03-05T04:26:43.155Z,100.00
2023-03-05T04:29:15.948Z,100.00
2023-03-05T04:31:49.654Z,100.00
2023-03-05T04:34:22.560Z,100.00
2023-03-05T04:36:55.718Z,100.00
2023-03-05T04:39:28.873Z,100.00
2023-03-05T04:42:01.629Z,100.00
2023-03-05T04:44:35.161Z,100.00
2023-03-05T04:47:08.297Z,100.00
2023-03-05T04:49:41.361Z,100.00
2023-03-05T04:52:15.650Z,100.00
2023-03-05T04:54:48.420Z,100.00
2023-03-05T04:57:23.153Z,100.00
2023-03-05T04:59:55.794Z,100.00
2023-03-05T05:02:28.981Z,100.00
2023-03-05T05:05:01.875Z,100.00
2023-03-05T05:07:35.148Z,100.00
2023-03-05T05:10:09.431Z,100.00
2023-03-05T05:12:42.316Z,100.00
2023-03-05T05:15:15.592Z,100.00
2023-03-05T05:17:49.782Z,100.00
2023-03-05T05:20:23.118Z,100.00
2023-03-05T05:22:56.184Z,100.00
2023-03-05T05:25:29.360Z,100.00
2023-03-05T05:28:02.016Z,100.00
2023-03-05T05:30:34.979Z,100.00
2023-03-05T05:33:08.554Z,100.00
2023-03-05T05:35:42.210Z,100.00
2023-03-05T05:38:15.772Z,100.00
2023-03-05T05:40:49.303Z,100.00
2023-03-05T05:43:22.047Z,99.41
2023-03-05T05:45:55.665Z,98.13
2023-03-05T05:48:30.741Z,96.63
2023-03-05T05:51:13.414Z,96.49
2023-03-05T05:53:47.975Z,95.80
2023-03-05T05:56:22.081Z,95.71
2023-03-05T05:58:55.618Z,95.88
2023-03-05T06:01:33.680Z,95.30
2023-03-05T06:04:06.594Z,94.13
2023-03-05T06:06:39.980Z,93.81
2023-03-05T06:09:13.061Z,93.08
2023-03-05T06:11:45.987Z,92.78
2023-03-05T06:14:18.854Z,92.44
2023-03-05T06:16:52.310Z,91.45
2023-03-05T06:19:24.804Z,90.76
2023-03-05T06:21:57.905Z,90.33
2023-03-05T06:24:30.819Z,89.83
2023-03-05T06:27:04.635Z,89.06
2023-03-05T06:29:38.282Z,88.26
2023-03-05T06:32:11.691Z,88.11
2023-03-05T06:34:44.561Z,87.83
2023-03-05T06:37:17.464Z,87.64
2023-03-05T06:39:50.758Z,87.70
2023-03-05T06:42:23.689Z,87.56
2023-03-05T06:44:56.596Z,87.03
2023-03-05T06:47:29.910Z,85.75
2023-03-05T06:50:03.982Z,85.38
2023-03-05T06:52:39.269Z,85.40
2023-03-05T06:55:12.865Z,84.82
2023-03-05T06:57:45.709Z,85.22
2023-03-05T07:00:18.796Z,83.14
2023-03-05T07:02:51.787Z,83.08
2023-03-05T07:05:25.138Z,82.79
2023-03-05T07:07:58.571Z,81.75
2023-03-05T07:10:31.962Z,81.62
2023-03-05T07:13:05.022Z,80.26
2023-03-05T07:15:41.215Z,79.88
2023-03-05T07:18:14.155Z,79.48
2023-03-05T07:20:46.879Z,78.72
2023-03-05T07:23:20.478Z,79.56
2023-03-05T07:25:53.953Z,79.54
2023-03-05T07:28:27.418Z,79.50
2023-03-05T07:31:03.083Z,79.54
2023-03-05T07:33:37.502Z,78.21
2023-03-05T07:36:12.335Z,78.03
2023-03-05T07:38:45.472Z,78.02
2023-03-05T07:41:22.235Z,77.75
2023-03-05T07:43:56.735Z,76.76
2023-03-05T07:46:33.051Z,75.03
2023-03-05T07:49:06.859Z,74.07
2023-03-05T07:51:42.037Z,73.31
2023-03-05T07:54:14.664Z,73.29
2023-03-05T07:56:47.989Z,71.11
2023-03-05T07:59:20.796Z,70.75
2023-03-05T08:01:54.120Z,69.08
2023-03-05T08:04:27.355Z,67.20
2023-03-05T08:07:01.466Z,67.62
2023-03-05T08:09:36.239Z,67.35
2023-03-05T08:12:10.759Z,64.86
2023-03-05T08:14:44.329Z,63.76
2023-03-05T08:17:16.993Z,64.28
2023-03-05T08:19:50.402Z,63.21
2023-03-05T08:22:23.775Z,62.58
2023-03-05T08:24:57.356Z,62.30
2023-03-05T08:27:30.198Z,63.00
2023-03-05T08:30:04.235Z,62.82
2023-03-05T08:32:37.436Z,63.37
2023-03-05T08:35:10.653Z,63.66
2023-03-05T08:37:43.983Z,63.83
2023-03-05T08:40:19.088Z,63.93
2023-03-05T08:42:52.360Z,63.11
2023-03-05T08:45:25.782Z,62.81
2023-03-05T08:47:59.529Z,61.77
2023-03-05T08:50:32.900Z,61.53
2023-03-05T08:53:05.739Z,62.27
2023-03-05T08:55:38.763Z,62.66
2023-03-05T08:58:11.877Z,62.63
2023-03-05T09:00:44.554Z,62.43
2023-03-05T09:03:17.396Z,61.81
2023-03-05T09:05:51.638Z,62.02
2023-03-05T09:08:25.008Z,60.98
2023-03-05T09:10:58.850Z,60.64
2023-03-05T09:13:31.687Z,60.35
2023-03-05T09:16:09.893Z,58.51
2023-03-05T09:18:42.935Z,57.77
2023-03-05T09:21:18.662Z,56.96
2023-03-05T09:23:52.069Z,57.88
2023-03-05T09:26:25.517Z,57.80
2023-03-05T09:28:58.817Z,56.70
2023-03-05T09:31:32.116Z,56.17
2023-03-05T09:34:05.677Z,56.20
2023-03-05T09:36:39.563Z,56.57
2023-03-05T09:39:12.402Z,56.52
2023-03-05T09:42:05.381Z,55.30
2023-03-05T09:45:27.979Z,55.28
2023-03-05T09:48:27.482Z,55.78
2023-03-05T09:51:05.760Z,56.14
2023-03-05T09:53:58.085Z,56.10
2023-03-05T09:56:38.120Z,55.84
2023-03-05T09:59:39.844Z,55.18
2023-03-05T10:02:29.485Z,54.78
2023-03-05T10:05:26.472Z,54.45
2023-03-05T10:08:06.052Z,54.30
2023-03-05T10:10:43.340Z,54.53
2023-03-05T10:13:30.383Z,54.01
2023-03-05T10:16:31.911Z,54.52
2023-03-05T10:19:27.218Z,53.83
2023-03-05T10:22:22.591Z,53.64
2023-03-05T10:25:27.636Z,52.74
2023-03-05T10:28:07.893Z,52.99
2023-03-05T10:31:08.192Z,52.84
2023-03-05T10:34:09.292Z,53.09
2023-03-05T10:37:01.893Z,52.48
2023-03-05T10:40:11.649Z,52.26
2023-03-05T10:43:23.341Z,51.99
2023-03-05T10:45:57.044Z,51.74
2023-03-05T10:48:52.566Z,51.61
2023-03-05T10:51:50.905Z,51.36
2023-03-05T10:54:39.251Z,51.49
2023-03-05T10:57:24.264Z,50.84
2023-03-05T11:00:10.855Z,49.90
2023-03-05T11:03:08.238Z,49.76
2023-03-05T11:05:46.034Z,50.11
2023-03-05T11:08:32.940Z,49.61
2023-03-05T11:11:19.023Z,49.00
2023-03-05T11:14:04.194Z,49.11
2023-03-05T11:16:51.089Z,48.91
2023-03-05T11:19:32.244Z,49.67
2023-03-05T11:22:21.426Z,49.49
2023-03-05T11:25:19.366Z,49.49
2023-03-05T11:27:56.447Z,48.62
2023-03-05T11:30:34.113Z,48.79
2023-03-05T11:33:22.911Z,48.93
2023-03-05T11:36:27.423Z,48.80
2023-03-05T11:39:18.592Z,48.95
2023-03-05T11:42:00.937Z,48.69
2023-03-05T11:44:49.730Z,47.45
2023-03-05T11:47:55.147Z,47.24
2023-03-05T11:50:31.510Z,47.30
2023-03-05T11:53:29.076Z,47.50
2023-03-05T11:56:18.072Z,47.20
2023-03-05T11:59:10.607Z,46.40
2023-03-05T12:01:47.833Z,46.35
2023-03-05T12:04:21.891Z,46.12
2023-03-05T12:07:04.890Z,46.33
2023-03-05T12:09:51.095Z,46.04
2023-03-05T12:12:58.761Z,46.50
2023-03-05T12:16:02.773Z,46.93
2023-03-05T12:18:47.302Z,47.69
2023-03-05T12:21:37.688Z,47.66
2023-03-05T12:24:33.217Z,48.04
2023-03-05T12:27:09.937Z,48.85
2023-03-05T12:29:54.670Z,48.96
2023-03-05T12:32:32.411Z,48.86
2023-03-05T12:35:35.330Z,49.17
2023-03-05T12:38:32.344Z,49.24
2023-03-05T12:41:34.016Z,49.70
2023-03-05T12:44:13.996Z,49.56
2023-03-05T12:46:50.736Z,49.63
2023-03-05T12:49:28.655Z,49.44
2023-03-05T12:52:01.243Z,50.08
2023-03-05T12:54:42.295Z,50.82
2023-03-05T12:57:24.294Z,51.20
2023-03-05T13:00:05.690Z,51.56
2023-03-05T13:02:45.560Z,51.57
2023-03-05T13:05:29.533Z,51.45
2023-03-05T13:08:16.378Z,51.68
2023-03-05T13:11:02.329Z,51.97
2023-03-05T13:13:41.155Z,52.02
2023-03-05T13:16:29.522Z,51.98
2023-03-05T13:19:04.425Z,52.31
2023-03-05T13:21:38.716Z,52.69
2023-03-05T13:24:20.103Z,52.72
2023-03-05T13:26:52.889Z,52.39
2023-03-05T13:29:29.867Z,52.25
2023-03-05T13:32:08.008Z,52.13
2023-03-05T13:34:47.625Z,52.64
2023-03-05T13:37:22.684Z,52.92
2023-03-05T13:40:21.868Z,53.12
2023-03-05T13:42:57.069Z,53.25
2023-03-05T13:45:32.483Z,53.12
2023-03-05T13:48:07.616Z,53.01
2023-03-05T13:50:42.223Z,52.95
2023-03-05T13:53:31.102Z,53.00
2023-03-05T13:56:09.126Z,53.33
2023-03-05T13:58:55.157Z,53.40
2023-03-05T14:01:44.140Z,53.29
2023-03-05T14:04:23.930Z,53.21
2023-03-05T14:07:06.412Z,53.32
2023-03-05T14:09:47.486Z,53.29
2023-03-05T14:12:31.304Z,53.57
2023-03-05T14:15:08.431Z,53.50
2023-03-05T14:17:44.418Z,53.69
2023-03-05T14:20:32.305Z,53.60
2023-03-05T14:23:27.011Z,53.72
2023-03-05T14:26:30.150Z,53.51
2023-03-05T14:29:17.302Z,53.29
2023-03-05T14:32:01.783Z,53.09
2023-03-05T14:34:41.525Z,53.06
2023-03-05T14:37:27.147Z,52.75
2023-03-05T14:40:06.615Z,52.54
2023-03-05T14:42:58.898Z,52.08
2023-03-05T14:45:37.947Z,51.51
2023-03-05T14:48:14.183Z,51.64
2023-03-05T14:50:56.527Z,51.64
2023-03-05T14:53:40.036Z,51.08
2023-03-05T14:56:28.630Z,51.11
2023-03-05T14:59:03.245Z,50.82
2023-03-05T15:01:36.488Z,50.90
2023-03-05T15:04:09.741Z,51.08
2023-03-05T15:06:45.980Z,51.04
2023-03-05T15:09:21.417Z,50.90
2023-03-05T15:11:54.667Z,50.88
2023-03-05T15:14:28.470Z,50.05
2023-03-05T15:17:02.381Z,50.30
2023-03-05T15:19:35.902Z,49.97
2023-03-05T15:22:12.046Z,49.54
2023-03-05T15:24:45.936Z,49.51
2023-03-05T15:27:19.087Z,49.63
2023-03-05T15:29:52.438Z,49.63
2023-03-05T15:32:27.598Z,49.85
2023-03-05T15:35:01.498Z,49.69
2023-03-05T15:37:35.408Z,49.87
2023-03-05T15:40:10.049Z,50.14
2023-03-05T15:42:43.630Z,50.38
2023-03-05T15:45:17.475Z,50.31
2023-03-05T15:47:54.900Z,50.37
2023-03-05T15:50:28.028Z,50.43
2023-03-05T15:53:00.825Z,50.46
2023-03-05T15:55:33.943Z,50.44
2023-03-05T15:58:07.928Z,50.73
2023-03-05T16:00:42.292Z,50.74
2023-03-05T16:03:15.386Z,50.86
2023-03-05T16:05:48.036Z,50.93
2023-03-05T16:08:21.423Z,50.78
2023-03-05T16:10:55.122Z,51.13
2023-03-05T16:13:30.157Z,51.24
2023-03-05T16:16:06.394Z,51.45
2023-03-05T16:18:42.625Z,51.76
2023-03-05T16:21:15.740Z,51.67
2023-03-05T16:23:50.117Z,51.99
2023-03-05T16:26:23.494Z,52.40
2023-03-05T16:28:57.069Z,52.58
2023-03-05T16:31:35.600Z,52.71
2023-03-05T16:34:08.825Z,52.83
2023-03-05T16:36:44.497Z,53.08
2023-03-05T16:39:18.016Z,53.29
2023-03-05T16:41:52.993Z,53.53
2023-03-05T16:44:25.798Z,53.75
2023-03-05T16:46:59.490Z,53.93
2023-03-05T16:49:33.324Z,54.06
2023-03-05T16:52:18.456Z,54.25
2023-03-05T16:54:42.476Z,54.98
2023-03-05T16:57:15.980Z,54.99
2023-03-05T16:59:48.819Z,55.04
2023-03-05T17:02:21.733Z,55.15
2023-03-05T17:04:56.493Z,55.39
2023-03-05T17:07:29.338Z,55.66
2023-03-05T17:10:03.110Z,55.94
2023-03-05T17:12:36.977Z,56.52
2023-03-05T17:15:12.273Z,57.00
2023-03-05T17:17:45.077Z,57.16
2023-03-05T17:20:20.415Z,56.72
2023-03-05T17:22:53.277Z,57.21
2023-03-05T17:25:26.218Z,57.55
2023-03-05T17:27:59.742Z,57.49
2023-03-05T17:30:33.748Z,57.60
2023-03-05T17:33:08.204Z,57.91
2023-03-05T17:35:41.504Z,58.33
2023-03-05T17:38:15.632Z,58.54
2023-03-05T17:40:49.333Z,59.03
2023-03-05T17:43:22.218Z,59.54
2023-03-05T17:45:56.639Z,59.52
2023-03-05T17:48:30.121Z,60.20
2023-03-05T17:51:03.722Z,60.95
2023-03-05T17:53:39.258Z,61.50
2023-03-05T17:56:16.241Z,61.87
2023-03-05T17:58:49.682Z,61.94
2023-03-05T18:01:30.591Z,62.33
2023-03-05T18:04:04.174Z,62.77
2023-03-05T18:06:37.142Z,62.81
2023-03-05T18:09:10.365Z,62.93
2023-03-05T18:11:44.486Z,63.09
2023-03-05T18:14:19.019Z,63.33
2023-03-05T18:16:52.546Z,63.63
2023-03-05T18:19:26.155Z,64.07
2023-03-05T18:21:59.082Z,64.14
2023-03-05T18:24:32.045Z,64.06
2023-03-05T18:27:06.042Z,64.21
2023-03-05T18:29:38.972Z,64.75
2023-03-05T18:32:12.683Z,64.78
2023-03-05T18:34:46.834Z,64.85
2023-03-05T18:37:19.710Z,64.82
2023-03-05T18:39:53.274Z,65.25
2023-03-05T18:42:26.453Z,64.69
2023-03-05T18:45:01.141Z,65.12
2023-03-05T18:47:34.604Z,65.28
2023-03-05T18:50:10.461Z,65.78
2023-03-05T18:52:45.908Z,66.06
2023-03-05T18:55:25.384Z,66.52
2023-03-05T18:57:58.805Z,66.72
2023-03-05T19:00:32.623Z,66.88
2023-03-05T19:03:06.149Z,66.83
2023-03-05T19:05:41.872Z,66.61
2023-03-05T19:08:15.585Z,66.96
2023-03-05T19:10:48.813Z,66.73
2023-03-05T19:13:40.759Z,66.70
2023-03-05T19:16:18.611Z,66.85
2023-03-05T19:19:07.910Z,67.06
2023-03-05T19:21:57.371Z,67.76
2023-03-05T19:24:32.727Z,68.52
2023-03-05T19:27:08.248Z,68.57
2023-03-05T19:29:43.177Z,68.56
2023-03-05T19:32:18.374Z,68.88
2023-03-05T19:34:51.779Z,69.35
2023-03-05T19:37:25.327Z,69.72
2023-03-05T19:39:57.925Z,70.06
2023-03-05T19:42:31.365Z,70.22
2023-03-05T19:45:05.114Z,70.46
2023-03-05T19:47:37.903Z,70.62
2023-03-05T19:50:12.896Z,71.42
2023-03-05T19:52:46.886Z,71.50
2023-03-05T19:55:20.524Z,71.41
2023-03-05T19:57:54.412Z,71.37
2023-03-05T20:00:28.157Z,71.57
2023-03-05T20:03:01.028Z,71.18
2023-03-05T20:05:34.364Z,71.00
2023-03-05T20:08:07.046Z,71.14
2023-03-05T20:10:40.257Z,71.50
2023-03-05T20:13:14.025Z,71.15
2023-03-05T20:15:46.841Z,71.27
2023-03-05T20:18:20.149Z,71.78
2023-03-05T20:20:59.988Z,72.02
2023-03-05T20:23:32.980Z,72.33
2023-03-05T20:26:07.351Z,72.94
2023-03-05T20:28:40.410Z,73.13
2023-03-05T20:31:13.806Z,73.32
2023-03-05T20:33:46.687Z,73.36
2023-03-05T20:36:20.018Z,73.73
2023-03-05T20:38:52.999Z,73.81
2023-03-05T20:41:27.218Z,73.40
2023-03-05T20:44:00.933Z,73.35
2023-03-05T20:46:39.864Z,73.22
2023-03-05T20:49:12.675Z,73.54
2023-03-05T20:51:47.277Z,73.45
2023-03-05T20:54:20.529Z,73.59
2023-03-05T20:56:53.424Z,73.29
2023-03-05T20:59:26.153Z,73.19
2023-03-05T21:01:59.524Z,73.65
2023-03-05T21:04:33.336Z,73.93
2023-03-05T21:07:06.395Z,73.89
2023-03-05T21:09:39.572Z,74.05
2023-03-05T21:12:13.260Z,74.61
2023-03-05T21:14:47.625Z,75.03
2023-03-05T21:17:20.485Z,74.98
2023-03-05T21:19:53.775Z,75.32
2023-03-05T21:22:26.938Z,75.29
2023-03-05T21:25:05.064Z,75.32
2023-03-05T21:27:38.261Z,75.44
2023-03-05T21:30:13.757Z,75.96
2023-03-05T21:32:47.295Z,76.30
2023-03-05T21:35:23.157Z,76.25
2023-03-05T21:37:56.663Z,76.53
2023-03-05T21:40:30.184Z,76.77
2023-03-05T21:43:04.055Z,76.66
2023-03-05T21:45:37.228Z,76.41
2023-03-05T21:48:11.438Z,76.52
2023-03-05T21:50:46.769Z,76.60
2023-03-05T21:53:22.347Z,77.03
2023-03-05T21:56:05.946Z,77.16
2023-03-05T21:58:40.119Z,77.20
2023-03-05T22:01:14.972Z,77.39
2023-03-05T22:03:48.582Z,77.35
2023-03-05T22:06:22.436Z,77.57
2023-03-05T22:08:54.935Z,77.69
2023-03-05T22:11:28.416Z,78.01
2023-03-05T22:14:01.851Z,78.12
2023-03-05T22:16:34.747Z,78.21
2023-03-05T22:19:09.125Z,78.44
2023-03-05T22:21:42.340Z,78.30
2023-03-05T22:24:16.951Z,78.39
2023-03-05T22:26:49.950Z,78.09
2023-03-05T22:29:23.291Z,78.09
2023-03-05T22:31:57.003Z,78.12
2023-03-05T22:34:29.943Z,77.99
2023-03-05T22:37:03.061Z,77.33
2023-03-05T22:39:36.376Z,76.93
2023-03-05T22:42:10.906Z,76.55
2023-03-05T22:44:44.312Z,75.79
2023-03-05T22:47:18.148Z,75.50
2023-03-05T22:49:51.136Z,75.56
2023-03-05T22:52:23.952Z,75.54
2023-03-05T22:54:56.902Z,75.57
2023-03-05T22:57:30.212Z,75.63
2023-03-05T23:00:03.287Z,75.60
2023-03-05T23:02:37.096Z,75.79
2023-03-05T23:05:11.150Z,75.85
2023-03-05T23:07:45.208Z,75.98
2023-03-05T23:10:28.726Z,76.17
2023-03-05T23:13:02.976Z,76.38
2023-03-05T23:15:39.446Z,76.67
2023-03-05T23:18:14.594Z,77.18
2023-03-05T23:20:47.568Z,77.59
2023-03-05T23:23:20.884Z,77.90
2023-03-05T23:25:54.538Z,77.98
2023-03-05T23:28:27.296Z,78.24
2023-03-05T23:31:01.060Z,78.40
2023-03-05T23:33:34.101Z,78.70
2023-03-05T23:36:07.921Z,78.59
2023-03-05T23:38:41.947Z,78.94
2023-03-05T23:41:14.679Z,79.03
2023-03-05T23:43:48.870Z,79.46
2023-03-05T23:46:21.673Z,79.91
2023-03-05T23:48:54.644Z,80.18
2023-03-05T23:51:27.397Z,80.16
2023-03-05T23:54:00.346Z,80.24
2023-03-05T23:56:33.458Z,80.22
2023-03-05T23:59:06.620Z,80.05
